Bonanza, Idaho
Current Conditions -  °F | °C
As of 10:55 AM on Wednesday 26 Nov 2014 (Local Time) from KLLJ Reporting Station
Clear Clear  
Wind Chill: 50°   Ceiling: Unl
Heat Index: 50°   Visibility: 10mi
Dew Point: 33°   Wind: 9mph
Humidity: 52%   Direction: 130°SE
Pressure: 30.25"   Gusts: NA
Location:  44.3379°N, 114.824°W
Report Text: KLLJ 261755Z AUTO 13008KT 10SM CLR 10/01 A3025 RMK AO2 SLP227 T01000006 10100 20039 53008
Loading
Personal Weather Stations






























Interactive Weather Map New forecast layout! Learn more

10-Day Weather Forecast

Advertisements
Track Severe Weather on mobile